Time;durP1;ratioP1;P1;durP2;ratioP2;P2;SDS_P1;SDS_P2;PMS_P1;PMS_P2;Temp;Humidity;BMP_temperature;BMP_pressure;BME280_temperature;BME280_humidity;BME280_pressure;Samples;Min_cycle;Max_cycle;Signal;HPM_P1;HPM_P2
2023/09/04 00:01:19;;;;;;;6.50;5.03;;;;;;;;;;10295258;28;20454;-82
2023/09/04 00:06:21;;;;;;;5.57;4.97;;;;;;;;;;10291299;28;20527;-81
2023/09/04 00:11:24;;;;;;;5.72;5.22;;;;;;;;;;10291476;28;20445;-81
2023/09/04 00:16:27;;;;;;;5.70;5.15;;;;;;;;;;10289922;28;20526;-80
2023/09/04 00:21:30;;;;;;;5.60;4.93;;;;;;;;;;10294284;28;20481;-81
2023/09/04 00:26:32;;;;;;;6.28;5.03;;;;;;;;;;10294130;28;21006;-81
2023/09/04 00:31:36;;;;;;;6.47;5.55;;;;;;;;;;10293712;28;20485;-81
2023/09/04 00:36:38;;;;;;;6.55;5.15;;;;;;;;;;10297773;28;20461;-81
2023/09/04 00:41:40;;;;;;;6.25;5.65;;;;;;;;;;10295247;28;20450;-80
2023/09/04 00:46:44;;;;;;;6.53;5.23;;;;;;;;;;10297627;28;20417;-81
2023/09/04 00:51:47;;;;;;;5.88;5.28;;;;;;;;;;10298601;28;20444;-80
2023/09/04 00:56:51;;;;;;;5.37;4.90;;;;;;;;;;10303132;28;20497;-81
2023/09/04 01:01:56;;;;;;;6.03;4.97;;;;;;;;;;10302943;28;20416;-82
2023/09/04 01:06:58;;;;;;;5.80;5.13;;;;;;;;;;10299244;28;20480;-81
2023/09/04 01:12:05;;;;;;;5.28;4.78;;;;;;;;;;10302262;28;20999;-81
2023/09/04 01:17:09;;;;;;;5.45;4.95;;;;;;;;;;10343675;28;20468;-81
2023/09/04 01:22:13;;;;;;;5.20;4.70;;;;;;;;;;10341442;28;20467;-81
2023/09/04 01:27:25;;;;;;;5.00;3.80;;;;;;;;;;10338411;28;20475;-81
2023/09/04 01:32:36;;;;;;;5.00;4.03;;;;;;;;;;10328816;28;20456;-82
2023/09/04 01:37:40;;;;;;;5.13;4.13;;;;;;;;;;10334108;28;20508;-81
2023/09/04 01:42:42;;;;;;;4.43;3.90;;;;;;;;;;10336433;28;20434;-81
2023/09/04 01:47:46;;;;;;;4.65;3.72;;;;;;;;;;10337490;28;20852;-81
2023/09/04 01:52:50;;;;;;;4.43;4.03;;;;;;;;;;10340122;28;20948;-80
2023/09/04 01:57:52;;;;;;;4.57;3.63;;;;;;;;;;10345767;28;20521;-81
2023/09/04 02:02:54;;;;;;;4.50;4.10;;;;;;;;;;10375656;28;20827;-81
2023/09/04 02:07:58;;;;;;;4.57;4.18;;;;;;;;;;10377820;28;20452;-81
2023/09/04 02:13:00;;;;;;;6.18;4.82;;;;;;;;;;10382979;28;21297;-81
2023/09/04 02:18:03;;;;;;;5.60;4.57;;;;;;;;;;10378996;28;20956;-81
2023/09/04 02:23:06;;;;;;;7.45;5.15;;;;;;;;;;10381670;28;20463;-81
2023/09/04 02:28:09;;;;;;;6.07;5.47;;;;;;;;;;10374255;28;20440;-81
2023/09/04 02:33:11;;;;;;;6.90;5.75;;;;;;;;;;10372662;28;21032;-81
2023/09/04 02:38:15;;;;;;;7.78;6.10;;;;;;;;;;10374182;28;20433;-82
2023/09/04 02:43:17;;;;;;;7.87;6.93;;;;;;;;;;10373930;28;20497;-81
2023/09/04 02:48:20;;;;;;;7.68;6.88;;;;;;;;;;10358502;28;20832;-81
2023/09/04 02:53:26;;;;;;;9.15;6.80;;;;;;;;;;10369550;28;20902;-81
2023/09/04 02:58:28;;;;;;;8.98;7.40;;;;;;;;;;10371519;28;20435;-81
2023/09/04 03:03:31;;;;;;;12.15;8.30;;;;;;;;;;10373149;28;20504;-81
2023/09/04 03:08:34;;;;;;;8.57;7.60;;;;;;;;;;10375129;28;20901;-81
2023/09/04 03:13:37;;;;;;;8.10;7.30;;;;;;;;;;10378094;28;20900;-81
2023/09/04 03:18:39;;;;;;;9.20;6.77;;;;;;;;;;10375969;28;20409;-81
2023/09/04 03:23:43;;;;;;;7.90;7.07;;;;;;;;;;10379780;28;20438;-81
2023/09/04 03:28:45;;;;;;;8.20;7.00;;;;;;;;;;10375959;28;20411;-81
2023/09/04 03:33:47;;;;;;;10.00;6.53;;;;;;;;;;10375423;28;20500;-81
2023/09/04 03:38:51;;;;;;;8.10;6.45;;;;;;;;;;10377680;28;20403;-81
2023/09/04 03:43:55;;;;;;;8.48;6.47;;;;;;;;;;10373188;28;21077;-81
2023/09/04 03:48:57;;;;;;;7.38;6.30;;;;;;;;;;10377362;28;20832;-80
2023/09/04 03:54:02;;;;;;;10.07;7.38;;;;;;;;;;10376323;28;21050;-81
2023/09/04 03:59:04;;;;;;;6.47;5.88;;;;;;;;;;10375606;28;20450;-80
2023/09/04 04:04:09;;;;;;;6.80;6.13;;;;;;;;;;10375639;28;20411;-81
2023/09/04 04:09:15;;;;;;;6.85;5.97;;;;;;;;;;10377539;28;20466;-81
2023/09/04 04:14:17;;;;;;;8.38;5.90;;;;;;;;;;10377179;28;20542;-82
2023/09/04 04:19:21;;;;;;;6.35;5.75;;;;;;;;;;10375342;28;20985;-80
2023/09/04 04:24:24;;;;;;;7.72;5.63;;;;;;;;;;10382620;28;20961;-81
2023/09/04 04:29:27;;;;;;;6.65;5.75;;;;;;;;;;10381268;28;20449;-81
2023/09/04 04:34:29;;;;;;;7.50;5.80;;;;;;;;;;10384627;28;20465;-81
2023/09/04 04:39:33;;;;;;;8.25;5.68;;;;;;;;;;10383675;28;20853;-81
2023/09/04 04:44:35;;;;;;;8.10;5.73;;;;;;;;;;10381084;28;20411;-81
2023/09/04 04:49:37;;;;;;;6.60;5.20;;;;;;;;;;10381452;28;20414;-81
2023/09/04 04:54:41;;;;;;;8.63;6.22;;;;;;;;;;10375166;28;20521;-80
2023/09/04 04:59:43;;;;;;;6.53;5.72;;;;;;;;;;10382759;28;20446;-79
2023/09/04 05:04:46;;;;;;;8.70;5.68;;;;;;;;;;10382534;28;20502;-80
2023/09/04 05:09:52;;;;;;;8.23;5.70;;;;;;;;;;10381766;28;20459;-78
2023/09/04 05:14:55;;;;;;;6.43;5.40;;;;;;;;;;10379780;28;20903;-79
2023/09/04 05:19:57;;;;;;;6.55;5.50;;;;;;;;;;10384831;28;20409;-79
2023/09/04 05:25:01;;;;;;;6.17;5.13;;;;;;;;;;10381702;28;20475;-80
2023/09/04 05:30:03;;;;;;;6.03;5.43;;;;;;;;;;10378609;28;20424;-80
2023/09/04 05:35:07;;;;;;;6.38;5.50;;;;;;;;;;10383804;28;20429;-80
2023/09/04 05:40:12;;;;;;;6.00;5.13;;;;;;;;;;10385287;28;20442;-80
2023/09/04 05:45:15;;;;;;;6.37;5.23;;;;;;;;;;10381451;28;20415;-80
2023/09/04 05:50:18;;;;;;;5.97;4.70;;;;;;;;;;10382633;28;20470;-80
2023/09/04 05:55:22;;;;;;;7.38;5.03;;;;;;;;;;10381526;28;20531;-80
2023/09/04 06:00:25;;;;;;;6.90;4.77;;;;;;;;;;10376587;28;20892;-80
2023/09/04 06:05:27;;;;;;;6.18;4.35;;;;;;;;;;10381682;28;20440;-80
2023/09/04 06:10:30;;;;;;;5.20;4.23;;;;;;;;;;10379144;28;20421;-80
2023/09/04 06:15:33;;;;;;;4.68;4.13;;;;;;;;;;10379111;28;20458;-80
2023/09/04 06:20:35;;;;;;;6.53;3.80;;;;;;;;;;10378491;28;20475;-81
2023/09/04 06:25:41;;;;;;;7.25;3.80;;;;;;;;;;10379846;28;20878;-80
2023/09/04 06:30:44;;;;;;;3.35;3.03;;;;;;;;;;10370051;28;20451;-79
2023/09/04 06:35:47;;;;;;;5.05;3.70;;;;;;;;;;10377026;28;20458;-80
2023/09/04 06:40:57;;;;;;;3.53;3.20;;;;;;;;;;10383060;28;20407;-80
2023/09/04 06:46:00;;;;;;;4.23;3.10;;;;;;;;;;10376129;28;20471;-79
2023/09/04 06:51:03;;;;;;;4.50;3.10;;;;;;;;;;10377375;28;20407;-80
2023/09/04 06:56:06;;;;;;;4.33;2.97;;;;;;;;;;10377766;28;20489;-80
2023/09/04 07:01:09;;;;;;;3.92;2.70;;;;;;;;;;10378114;28;20505;-79
2023/09/04 07:06:11;;;;;;;4.53;3.60;;;;;;;;;;10378132;28;20957;-80
2023/09/04 07:11:15;;;;;;;5.85;3.45;;;;;;;;;;10375425;28;20419;-80
2023/09/04 07:16:17;;;;;;;6.10;3.70;;;;;;;;;;10370456;28;20537;-80
2023/09/04 07:21:19;;;;;;;3.83;2.90;;;;;;;;;;10357726;28;20473;-81
2023/09/04 07:26:23;;;;;;;3.20;2.83;;;;;;;;;;10379198;28;20406;-80
2023/09/04 07:31:25;;;;;;;3.03;2.75;;;;;;;;;;10374471;28;20417;-79
2023/09/04 07:36:28;;;;;;;5.23;3.07;;;;;;;;;;10373920;28;20848;-80
2023/09/04 07:41:35;;;;;;;4.38;2.88;;;;;;;;;;10380206;28;20445;-81
2023/09/04 07:46:37;;;;;;;4.70;3.07;;;;;;;;;;10375580;28;20780;-80
2023/09/04 07:51:40;;;;;;;5.60;2.92;;;;;;;;;;10376793;28;20451;-78
2023/09/04 07:56:43;;;;;;;4.28;3.65;;;;;;;;;;10377536;28;20537;-80
2023/09/04 08:01:46;;;;;;;3.93;2.93;;;;;;;;;;10383590;28;20540;-80
2023/09/04 08:06:48;;;;;;;3.47;2.65;;;;;;;;;;10384305;28;20481;-81
2023/09/04 08:11:52;;;;;;;4.80;2.92;;;;;;;;;;10385328;28;20419;-80
2023/09/04 08:16:54;;;;;;;4.05;2.90;;;;;;;;;;10383330;28;20534;-80
2023/09/04 08:21:58;;;;;;;5.68;2.97;;;;;;;;;;10383238;28;20410;-80
2023/09/04 08:27:01;;;;;;;5.43;2.90;;;;;;;;;;10386841;28;20414;-80
2023/09/04 08:32:04;;;;;;;7.90;3.53;;;;;;;;;;10376075;28;20931;-80
2023/09/04 08:37:07;;;;;;;3.22;2.80;;;;;;;;;;10382972;28;20454;-80
2023/09/04 08:42:13;;;;;;;4.20;2.90;;;;;;;;;;10382886;28;20445;-80
2023/09/04 08:47:16;;;;;;;3.97;2.63;;;;;;;;;;10382025;28;20476;-80
2023/09/04 08:52:19;;;;;;;4.20;2.75;;;;;;;;;;10375580;28;20407;-80
2023/09/04 08:57:24;;;;;;;4.00;2.63;;;;;;;;;;10378111;28;20543;-79
2023/09/04 09:02:27;;;;;;;4.47;2.58;;;;;;;;;;10373288;28;20477;-81
2023/09/04 09:07:30;;;;;;;4.32;2.60;;;;;;;;;;10379927;28;20431;-80
2023/09/04 09:12:37;;;;;;;4.05;2.80;;;;;;;;;;10373089;28;20493;-80
2023/09/04 09:17:53;;;;;;;4.80;2.35;;;;;;;;;;10372444;28;20462;-81
2023/09/04 09:22:57;;;;;;;3.20;2.50;;;;;;;;;;10375108;28;20433;-80
2023/09/04 09:28:02;;;;;;;3.28;2.40;;;;;;;;;;10366424;28;20459;-81
2023/09/04 09:33:12;;;;;;;4.32;2.60;;;;;;;;;;10369119;28;20508;-80
2023/09/04 09:38:14;;;;;;;3.30;2.30;;;;;;;;;;10371550;28;20462;-81
2023/09/04 09:43:18;;;;;;;3.13;2.33;;;;;;;;;;10370904;28;20451;-80
2023/09/04 09:48:23;;;;;;;2.72;2.47;;;;;;;;;;10370981;28;20418;-80
2023/09/04 09:53:26;;;;;;;3.95;2.75;;;;;;;;;;10372156;28;20526;-80
2023/09/04 09:58:29;;;;;;;2.53;2.30;;;;;;;;;;10369629;28;20463;-80
2023/09/04 10:03:33;;;;;;;4.05;2.80;;;;;;;;;;10364194;28;20523;-80
2023/09/04 10:08:39;;;;;;;4.13;2.40;;;;;;;;;;10373526;28;20447;-80
2023/09/04 10:13:55;;;;;;;2.92;2.35;;;;;;;;;;10359144;28;20446;-81
2023/09/04 10:19:00;;;;;;;3.55;2.40;;;;;;;;;;10368333;28;20442;-81
2023/09/04 10:24:03;;;;;;;2.42;2.22;;;;;;;;;;10363879;28;21108;-81
2023/09/04 10:29:11;;;;;;;2.33;2.13;;;;;;;;;;10363882;28;20609;-82
2023/09/04 10:34:13;;;;;;;5.63;2.63;;;;;;;;;;10367885;28;20497;-81
2023/09/04 10:39:16;;;;;;;4.25;2.50;;;;;;;;;;10353642;28;20511;-80
2023/09/04 10:44:46;;;;;;;2.55;2.15;;;;;;;;;;10363864;28;20450;-82
2023/09/04 10:49:49;;;;;;;3.53;2.23;;;;;;;;;;10365269;28;20462;-82
2023/09/04 10:55:12;;;;;;;2.20;2.00;;;;;;;;;;10365150;28;20501;-81
2023/09/04 11:00:27;;;;;;;2.80;2.27;;;;;;;;;;10360325;28;20489;-81
2023/09/04 11:05:29;;;;;;;3.03;2.43;;;;;;;;;;10366282;28;20471;-82
2023/09/04 11:10:38;;;;;;;2.70;2.50;;;;;;;;;;10370349;28;20445;-81
2023/09/04 11:15:42;;;;;;;2.70;2.13;;;;;;;;;;10364121;28;21261;-81
2023/09/04 11:20:46;;;;;;;3.50;2.33;;;;;;;;;;10365892;28;20447;-81
2023/09/04 11:25:48;;;;;;;2.80;2.40;;;;;;;;;;10356835;28;20446;-80
2023/09/04 11:30:53;;;;;;;3.10;2.40;;;;;;;;;;10356033;28;20539;-81
2023/09/04 11:36:00;;;;;;;2.90;2.60;;;;;;;;;;10362176;28;20458;-82
2023/09/04 11:41:14;;;;;;;3.33;2.40;;;;;;;;;;10372702;28;20519;-81
2023/09/04 11:46:18;;;;;;;4.20;2.67;;;;;;;;;;10364688;28;20595;-81
2023/09/04 11:51:20;;;;;;;3.67;2.45;;;;;;;;;;10365171;28;20511;-82
2023/09/04 11:56:23;;;;;;;3.85;2.50;;;;;;;;;;10365329;28;20451;-81
2023/09/04 12:01:27;;;;;;;5.00;2.58;;;;;;;;;;10353104;28;20576;-81
2023/09/04 12:06:29;;;;;;;3.87;2.20;;;;;;;;;;10358154;28;20443;-81
2023/09/04 12:11:31;;;;;;;8.77;3.10;;;;;;;;;;10360472;28;20520;-81
2023/09/04 12:16:35;;;;;;;6.35;3.00;;;;;;;;;;10360591;28;20513;-81
2023/09/04 12:21:38;;;;;;;4.50;2.90;;;;;;;;;;10368290;28;20423;-81
2023/09/04 12:26:40;;;;;;;3.60;2.33;;;;;;;;;;10371384;28;20530;-81
2023/09/04 12:31:44;;;;;;;4.65;2.60;;;;;;;;;;10369191;28;20493;-81
2023/09/04 12:36:55;;;;;;;3.85;2.30;;;;;;;;;;10370426;28;20442;-81
2023/09/04 12:42:00;;;;;;;2.40;2.20;;;;;;;;;;10376203;28;20481;-81
2023/09/04 12:47:04;;;;;;;2.65;2.15;;;;;;;;;;10376502;28;20829;-82
2023/09/04 12:52:06;;;;;;;3.45;2.30;;;;;;;;;;10362607;28;20957;-82
2023/09/04 12:57:09;;;;;;;2.70;2.38;;;;;;;;;;10379529;28;21886;-82
2023/09/04 13:02:14;;;;;;;3.80;2.47;;;;;;;;;;10376978;28;20499;-81
2023/09/04 13:07:16;;;;;;;4.27;2.40;;;;;;;;;;10382554;28;20427;-81
2023/09/04 13:12:18;;;;;;;2.40;2.20;;;;;;;;;;10368977;28;20508;-82
2023/09/04 13:17:22;;;;;;;3.77;2.30;;;;;;;;;;10355894;28;20466;-82
2023/09/04 13:22:25;;;;;;;2.60;2.40;;;;;;;;;;10378464;28;20489;-82
2023/09/04 13:27:30;;;;;;;4.50;2.73;;;;;;;;;;10380520;28;20497;-81
2023/09/04 13:32:35;;;;;;;3.50;2.40;;;;;;;;;;10368435;28;20409;-81
2023/09/04 13:37:38;;;;;;;3.75;2.33;;;;;;;;;;10380072;28;20931;-81
2023/09/04 13:42:40;;;;;;;3.20;2.25;;;;;;;;;;10379817;28;20561;-81
2023/09/04 13:47:44;;;;;;;2.30;2.10;;;;;;;;;;10377513;28;20454;-81
2023/09/04 13:52:46;;;;;;;6.07;2.40;;;;;;;;;;10377379;28;20816;-82
2023/09/04 13:57:48;;;;;;;2.90;2.10;;;;;;;;;;10373579;28;20453;-82
2023/09/04 14:02:52;;;;;;;3.37;2.40;;;;;;;;;;10378605;28;20450;-82
2023/09/04 14:07:54;;;;;;;3.03;2.72;;;;;;;;;;10379682;28;20407;-82
2023/09/04 14:12:57;;;;;;;2.67;2.33;;;;;;;;;;10381064;28;20421;-82
2023/09/04 14:18:00;;;;;;;3.38;3.08;;;;;;;;;;10375087;28;20492;-82
2023/09/04 14:23:03;;;;;;;2.45;2.25;;;;;;;;;;10377841;28;20736;-82
2023/09/04 14:28:05;;;;;;;3.88;2.60;;;;;;;;;;10375998;28;20452;-81
2023/09/04 14:33:09;;;;;;;3.20;2.53;;;;;;;;;;10378615;28;20965;-82
2023/09/04 14:38:11;;;;;;;2.70;2.40;;;;;;;;;;10382977;28;20458;-81
2023/09/04 14:43:14;;;;;;;3.37;2.43;;;;;;;;;;10366949;28;20437;-82
2023/09/04 14:48:17;;;;;;;3.13;2.75;;;;;;;;;;10370063;28;20497;-82
2023/09/04 14:53:20;;;;;;;4.23;2.77;;;;;;;;;;10362103;28;20481;-82
2023/09/04 14:58:22;;;;;;;2.60;2.40;;;;;;;;;;10363316;28;20462;-82
2023/09/04 15:03:26;;;;;;;3.10;2.75;;;;;;;;;;10364929;28;21004;-82
2023/09/04 15:08:29;;;;;;;4.53;2.72;;;;;;;;;;10367448;28;20419;-82
2023/09/04 15:13:31;;;;;;;3.10;2.70;;;;;;;;;;10365007;28;20901;-82
2023/09/04 15:18:35;;;;;;;3.37;2.60;;;;;;;;;;10375543;28;20523;-83
2023/09/04 15:23:37;;;;;;;3.42;2.90;;;;;;;;;;10368133;28;20407;-82
2023/09/04 15:28:39;;;;;;;2.53;2.33;;;;;;;;;;10363726;28;20478;-79
2023/09/04 15:34:03;;;;;;;;;;;;;;;;;;;;;
2023/09/04 15:39:06;;;;;;;2.65;2.45;;;;;;;;;;10351526;28;20466;-82
2023/09/04 15:44:08;;;;;;;3.00;2.70;;;;;;;;;;10353974;28;20483;-81
2023/09/04 15:49:12;;;;;;;2.92;2.63;;;;;;;;;;10345020;28;20455;-82
2023/09/04 15:54:14;;;;;;;2.65;2.45;;;;;;;;;;10349184;28;20458;-82
2023/09/04 15:59:17;;;;;;;2.90;2.58;;;;;;;;;;10356334;28;20482;-81
2023/09/04 16:04:20;;;;;;;3.07;2.47;;;;;;;;;;10359304;28;20463;-82
2023/09/04 16:09:23;;;;;;;4.10;2.10;;;;;;;;;;10364451;28;20841;-82
2023/09/04 16:14:26;;;;;;;2.30;2.10;;;;;;;;;;10356419;28;20874;-82
2023/09/04 16:19:30;;;;;;;2.85;2.20;;;;;;;;;;10365047;28;20508;-83
2023/09/04 16:24:33;;;;;;;2.97;2.33;;;;;;;;;;10363946;28;20469;-82
2023/09/04 16:29:35;;;;;;;4.70;2.70;;;;;;;;;;10361656;28;20506;-82
2023/09/04 16:34:39;;;;;;;10.30;3.70;;;;;;;;;;10359870;28;20485;-82
2023/09/04 16:39:44;;;;;;;3.83;2.70;;;;;;;;;;10375518;28;20462;-82
2023/09/04 16:44:46;;;;;;;2.60;2.40;;;;;;;;;;10370476;28;20516;-82
2023/09/04 16:49:50;;;;;;;2.43;2.20;;;;;;;;;;10369691;28;20493;-82
2023/09/04 16:54:52;;;;;;;5.20;2.35;;;;;;;;;;10365880;28;20461;-81
2023/09/04 16:59:54;;;;;;;3.10;2.20;;;;;;;;;;10362715;28;20497;-82
2023/09/04 17:05:00;;;;;;;3.47;2.22;;;;;;;;;;10363193;28;20667;-81
2023/09/04 17:10:04;;;;;;;4.70;2.20;;;;;;;;;;10365208;28;20489;-81
2023/09/04 17:15:07;;;;;;;3.70;2.30;;;;;;;;;;10367160;28;20484;-81
2023/09/04 17:20:12;;;;;;;2.30;2.10;;;;;;;;;;10368945;28;20701;-81
2023/09/04 17:25:15;;;;;;;3.47;2.72;;;;;;;;;;10346524;28;20855;-81
2023/09/04 17:30:17;;;;;;;3.88;2.92;;;;;;;;;;10366053;28;20458;-80
2023/09/04 17:35:21;;;;;;;8.03;2.60;;;;;;;;;;10374623;28;21008;-80
2023/09/04 17:40:23;;;;;;;2.63;2.42;;;;;;;;;;10373834;28;20457;-80
2023/09/04 17:45:25;;;;;;;2.75;2.10;;;;;;;;;;10366289;28;20549;-80
2023/09/04 17:50:29;;;;;;;3.70;2.35;;;;;;;;;;10377011;28;20445;-80
2023/09/04 17:55:33;;;;;;;5.68;3.00;;;;;;;;;;10367149;28;20483;-80
2023/09/04 18:00:35;;;;;;;5.90;2.60;;;;;;;;;;10367806;28;20458;-79
2023/09/04 18:05:39;;;;;;;3.22;2.10;;;;;;;;;;10356994;28;20450;-80
2023/09/04 18:10:43;;;;;;;3.57;2.20;;;;;;;;;;10366156;28;20439;-80
2023/09/04 18:15:45;;;;;;;3.22;2.50;;;;;;;;;;10357840;28;20462;-79
2023/09/04 18:20:49;;;;;;;3.88;2.30;;;;;;;;;;10366749;28;20551;-79
2023/09/04 18:25:51;;;;;;;6.18;2.33;;;;;;;;;;10364757;28;20902;-79
2023/09/04 18:30:56;;;;;;;3.80;2.65;;;;;;;;;;10351657;28;20840;-80
2023/09/04 18:36:01;;;;;;;3.72;2.80;;;;;;;;;;10358280;28;21032;-80
2023/09/04 18:41:07;;;;;;;3.80;2.70;;;;;;;;;;10374162;28;20463;-79
2023/09/04 18:46:10;;;;;;;3.97;2.58;;;;;;;;;;10358343;28;20886;-80
2023/09/04 18:51:13;;;;;;;4.30;2.80;;;;;;;;;;10368406;28;20457;-79
2023/09/04 18:56:16;;;;;;;5.15;2.70;;;;;;;;;;10366650;28;20455;-79
2023/09/04 19:01:18;;;;;;;3.33;2.78;;;;;;;;;;10353892;28;20454;-79
2023/09/04 19:06:22;;;;;;;7.17;4.53;;;;;;;;;;10373018;28;20445;-79
2023/09/04 19:11:24;;;;;;;10.32;6.05;;;;;;;;;;10372678;28;20451;-80
2023/09/04 19:16:27;;;;;;;13.90;7.43;;;;;;;;;;10362797;28;20449;-79
2023/09/04 19:21:30;;;;;;;11.20;7.30;;;;;;;;;;10368606;28;20953;-80
2023/09/04 19:26:34;;;;;;;11.40;6.57;;;;;;;;;;10365087;28;20487;-81
2023/09/04 19:31:36;;;;;;;11.38;6.28;;;;;;;;;;10366904;28;20452;-81
2023/09/04 19:36:40;;;;;;;8.55;4.80;;;;;;;;;;10370047;28;20449;-81
2023/09/04 19:41:43;;;;;;;7.25;4.40;;;;;;;;;;10368537;28;20454;-81
2023/09/04 19:46:45;;;;;;;4.90;3.80;;;;;;;;;;10366686;28;20497;-81
2023/09/04 19:51:50;;;;;;;5.87;3.50;;;;;;;;;;10368701;28;20483;-81
2023/09/04 19:56:52;;;;;;;4.75;3.97;;;;;;;;;;10373824;28;20918;-80
2023/09/04 20:01:55;;;;;;;6.03;3.78;;;;;;;;;;10375761;28;20458;-80
2023/09/04 20:06:58;;;;;;;4.07;3.67;;;;;;;;;;10375179;28;20437;-80
2023/09/04 20:12:01;;;;;;;4.90;3.92;;;;;;;;;;10367414;28;20489;-81
2023/09/04 20:17:03;;;;;;;5.03;3.80;;;;;;;;;;10368783;28;20477;-81
2023/09/04 20:22:08;;;;;;;5.10;4.10;;;;;;;;;;10373852;28;20449;-79
2023/09/04 20:27:11;;;;;;;6.53;4.32;;;;;;;;;;10370285;28;20515;-80
2023/09/04 20:32:14;;;;;;;5.78;4.20;;;;;;;;;;10368449;28;20512;-80
2023/09/04 20:37:18;;;;;;;4.93;4.22;;;;;;;;;;10373641;28;20446;-80
2023/09/04 20:42:20;;;;;;;5.50;4.23;;;;;;;;;;10377471;28;20454;-80
2023/09/04 20:47:23;;;;;;;4.30;3.90;;;;;;;;;;10369292;28;20466;-80
2023/09/04 20:52:26;;;;;;;3.70;2.88;;;;;;;;;;10376111;28;20445;-79
2023/09/04 20:57:29;;;;;;;3.40;2.63;;;;;;;;;;10373293;28;20452;-80
2023/09/04 21:02:31;;;;;;;3.80;2.70;;;;;;;;;;10366770;28;20502;-80
2023/09/04 23:26:09;;;;;;;3.13;1.70;;;;;;;;;;10323906;28;20417;-80
2023/09/04 23:31:13;;;;;;;3.10;1.90;;;;;;;;;;10311928;28;20445;-81
2023/09/04 23:36:24;;;;;;;4.73;2.10;;;;;;;;;;10322903;28;20472;-80
2023/09/04 23:46:47;;;;;;;3.20;1.83;;;;;;;;;;10323804;28;20483;-80
2023/09/04 23:51:49;;;;;;;2.83;1.55;;;;;;;;;;10331476;28;20419;-80
2023/09/04 23:56:52;;;;;;;4.63;1.70;;;;;;;;;;10337427;28;20415;-80
